Cedar City, Iowa
Current Conditions -  °F | °C
As of 11:54 AM on Friday 24 Oct 2014 (Local Time) from KALO Reporting Station
Haze Haze  
Wind Chill: 52°   Ceiling: 300
Heat Index: 52°   Visibility: 1.7mi
Dew Point: 52°   Wind: 13mph
Humidity: 100%   Direction: 160°SSE
Pressure: 29.95"   Gusts: NA
Location:  42.5035°N, 92.4936°W
Report Text: KALO 241654Z 16011KT 1 3/4SM R12/6000VP6000FT BR OVC003 11/11 A2995 RMK AO2 SLP145 T01110111
Loading
Personal Weather Stations






























Interactive Weather Map
Tropical Storm Tracking
New forecast layout! Learn more

10-Day Weather Forecast

Advertisements
Track Severe Weather on mobile